In Rescue
 
Open Full Screen Window  High Contrast Mode
Wind Gusting 19 knots
12
October 25, 2021 3:16 PM EDT
Weather Information
Wind Direction
  020 °
Wind Speed
  12 kt (14 mph)
Wind Gust
  19 kt (22 mph)
Altimeter
30.03 in
Visibility
10 SM
Temperature
09° C
48° F
Dewpoint
04° C
39° F
Humidity
71%
Sky Condition
Overcast @ 3,000 ft
MVFR

METAR KSLH 251916Z AUTO 02012G19KT 10SM OVC030 09/04 A3003 RMK AO2

FAA Disclaimer: The data displayed is for advisory purposes only and is not to be used for flight planning or operations.